createdAt,value
2022-10-16T00:03:05.729Z,12.51
2022-10-16T00:08:14.527Z,12.51
2022-10-16T00:13:22.631Z,12.55
2022-10-16T00:18:30.294Z,12.60
2022-10-16T00:23:38.561Z,12.59
2022-10-16T00:28:47.382Z,12.50
2022-10-16T00:33:56.740Z,12.38
2022-10-16T00:40:57.089Z,12.32
2022-10-16T00:46:06.862Z,12.30
2022-10-16T00:51:13.874Z,12.29
2022-10-16T00:56:22.595Z,12.26
2022-10-16T01:01:30.681Z,12.30
2022-10-16T01:06:45.533Z,12.31
2022-10-16T01:12:07.430Z,12.30
2022-10-16T01:17:20.583Z,12.31
2022-10-16T01:22:35.816Z,12.35
2022-10-16T01:27:45.173Z,12.38
2022-10-16T01:32:57.992Z,12.41
2022-10-16T01:38:09.592Z,12.42
2022-10-16T01:43:19.729Z,12.37
2022-10-16T01:48:28.040Z,12.37
2022-10-16T01:53:36.039Z,12.40
2022-10-16T01:58:49.226Z,12.47
2022-10-16T02:04:00.767Z,12.52
2022-10-16T02:09:08.271Z,12.56
2022-10-16T02:14:16.376Z,12.58
2022-10-16T02:19:25.546Z,12.59
2022-10-16T02:24:40.610Z,12.61
2022-10-16T02:29:51.730Z,12.60
2022-10-16T02:35:00.820Z,12.60
2022-10-16T02:40:11.253Z,12.59
2022-10-16T02:45:20.636Z,12.58
2022-10-16T02:50:28.715Z,12.57
2022-10-16T02:55:36.214Z,12.52
2022-10-16T03:00:43.603Z,12.44
2022-10-16T03:05:51.548Z,12.37
2022-10-16T03:10:58.874Z,12.33
2022-10-16T03:16:06.494Z,12.25
2022-10-16T03:21:13.752Z,12.19
2022-10-16T03:26:20.858Z,12.17
2022-10-16T03:31:28.444Z,12.12
2022-10-16T03:36:36.007Z,12.04
2022-10-16T03:41:43.075Z,11.91
2022-10-16T03:46:50.996Z,11.78
2022-10-16T03:51:58.063Z,11.67
2022-10-16T03:57:05.990Z,11.60
2022-10-16T04:02:13.263Z,11.50
2022-10-16T04:07:20.794Z,11.42
2022-10-16T04:12:28.424Z,11.38
2022-10-16T04:17:35.661Z,11.35
2022-10-16T04:22:43.514Z,11.34
2022-10-16T04:27:51.074Z,11.32
2022-10-16T04:32:58.564Z,11.29
2022-10-16T04:38:05.743Z,11.30
2022-10-16T04:43:13.603Z,11.29
2022-10-16T04:48:21.472Z,11.23
2022-10-16T04:53:28.580Z,11.16
2022-10-16T04:58:36.195Z,11.12
2022-10-16T05:03:43.894Z,11.09
2022-10-16T05:08:53.367Z,10.99
2022-10-16T05:14:02.655Z,10.88
2022-10-16T05:24:37.255Z,10.86
2022-10-16T05:29:44.265Z,10.79
2022-10-16T05:34:53.103Z,10.63
2022-10-16T05:40:00.198Z,10.59
2022-10-16T05:45:10.890Z,10.59
2022-10-16T05:50:19.729Z,10.63
2022-10-16T05:55:27.023Z,10.75
2022-10-16T06:00:34.565Z,10.85
2022-10-16T06:05:44.087Z,10.94
2022-10-16T06:11:02.237Z,10.99
2022-10-16T06:16:12.657Z,11.03
2022-10-16T06:21:23.130Z,11.06
2022-10-16T06:26:32.032Z,11.07
2022-10-16T06:31:39.139Z,11.17
2022-10-16T06:36:46.480Z,11.29
2022-10-16T06:41:54.984Z,11.45
2022-10-16T06:47:02.627Z,11.61
2022-10-16T06:52:09.804Z,11.78
2022-10-16T06:57:17.003Z,11.95
2022-10-16T07:02:25.005Z,12.14
2022-10-16T07:07:33.375Z,12.33
2022-10-16T07:12:40.741Z,12.50
2022-10-16T07:17:48.036Z,12.67
2022-10-16T07:22:55.607Z,12.81
2022-10-16T07:28:02.673Z,12.93
2022-10-16T07:33:09.847Z,13.08
2022-10-16T07:38:16.919Z,13.28
2022-10-16T07:43:24.566Z,13.47
2022-10-16T07:48:34.195Z,13.63
2022-10-16T07:53:41.116Z,13.77
2022-10-16T07:58:51.388Z,13.90
2022-10-16T08:03:58.537Z,14.06
2022-10-16T08:09:06.592Z,14.20
2022-10-16T08:14:14.485Z,14.35
2022-10-16T08:19:22.610Z,14.47
2022-10-16T08:24:32.213Z,14.59
2022-10-16T08:29:39.770Z,14.75
2022-10-16T08:34:46.908Z,14.88
2022-10-16T08:39:55.154Z,15.02
2022-10-16T08:45:29.134Z,15.17
2022-10-16T08:50:40.628Z,15.37
2022-10-16T08:55:52.702Z,15.61
2022-10-16T09:01:02.798Z,15.86
2022-10-16T09:06:29.166Z,16.11
2022-10-16T09:11:46.737Z,16.36
2022-10-16T09:17:00.921Z,16.58
2022-10-16T09:22:18.332Z,16.75
2022-10-16T09:27:25.963Z,16.87
2022-10-16T09:32:34.995Z,17.00
2022-10-16T09:37:44.879Z,17.14
2022-10-16T09:42:55.293Z,17.28
2022-10-16T09:48:12.536Z,17.42
2022-10-16T09:53:23.945Z,17.52
2022-10-16T09:58:31.599Z,17.58
2022-10-16T10:03:42.873Z,17.67
2022-10-16T10:09:06.438Z,17.77
2022-10-16T10:14:22.329Z,17.86
2022-10-16T10:19:32.940Z,17.96
2022-10-16T10:24:41.963Z,18.08
2022-10-16T10:29:57.363Z,18.20
2022-10-16T10:35:16.744Z,18.30
2022-10-16T10:40:37.997Z,18.40
2022-10-16T10:45:50.603Z,18.50
2022-10-16T10:51:04.191Z,18.61
2022-10-16T10:56:22.564Z,18.71
2022-10-16T11:01:41.557Z,18.83
2022-10-16T11:06:54.384Z,18.93
2022-10-16T11:12:08.784Z,18.99
2022-10-16T11:17:21.267Z,19.08
2022-10-16T11:22:34.299Z,19.14
2022-10-16T11:27:44.471Z,19.22
2022-10-16T11:33:03.240Z,19.27
2022-10-16T11:38:18.448Z,19.29
2022-10-16T11:43:32.267Z,19.28
2022-10-16T11:48:46.834Z,19.27
2022-10-16T11:54:00.313Z,19.26
2022-10-16T11:59:19.425Z,19.26
2022-10-16T12:04:35.170Z,19.26
2022-10-16T12:09:44.419Z,19.25
2022-10-16T12:15:25.804Z,19.23
2022-10-16T12:20:33.676Z,19.23
2022-10-16T12:25:48.376Z,19.26
2022-10-16T12:30:59.828Z,19.33
2022-10-16T12:36:13.306Z,19.41
2022-10-16T12:41:29.356Z,19.49
2022-10-16T12:46:43.051Z,19.56
2022-10-16T12:51:51.726Z,19.59
2022-10-16T12:57:12.401Z,19.62
2022-10-16T13:03:00.817Z,19.63
2022-10-16T13:08:24.494Z,19.65
2022-10-16T13:14:07.940Z,19.68
2022-10-16T13:19:28.949Z,19.75
2022-10-16T13:24:51.925Z,19.81
2022-10-16T13:30:11.840Z,19.81
2022-10-16T13:35:27.594Z,19.75
2022-10-16T13:40:35.873Z,19.72
2022-10-16T13:45:43.938Z,19.67
2022-10-16T13:51:02.548Z,19.63
2022-10-16T14:13:27.707Z,19.33
2022-10-16T14:18:36.071Z,19.27
2022-10-16T14:23:45.000Z,19.21
2022-10-16T14:29:06.126Z,19.14
2022-10-16T14:34:31.721Z,19.05
2022-10-16T14:39:39.435Z,18.95
2022-10-16T14:44:46.601Z,18.87
2022-10-16T14:49:56.345Z,18.82
2022-10-16T14:55:03.687Z,18.77
2022-10-16T15:00:20.959Z,18.73
2022-10-16T15:05:29.773Z,18.68
2022-10-16T15:10:43.142Z,18.61
2022-10-16T15:15:51.404Z,18.48
2022-10-16T15:21:00.678Z,18.34
2022-10-16T15:26:08.326Z,18.20
2022-10-16T15:31:16.107Z,18.06
2022-10-16T15:36:38.200Z,17.96
2022-10-16T15:41:52.218Z,17.83
2022-10-16T15:47:00.101Z,17.73
2022-10-16T15:52:07.540Z,17.65
2022-10-16T15:57:15.640Z,17.55
2022-10-16T16:02:23.075Z,17.47
2022-10-16T16:07:30.334Z,17.38
2022-10-16T16:12:38.303Z,17.29
2022-10-16T16:17:46.221Z,17.18
2022-10-16T16:22:54.408Z,17.06
2022-10-16T16:28:02.194Z,16.90
2022-10-16T16:33:10.173Z,16.67
2022-10-16T16:38:17.342Z,16.39
2022-10-16T16:43:27.330Z,16.15
2022-10-16T16:48:35.730Z,15.92
2022-10-16T16:53:43.230Z,15.80
2022-10-16T16:58:52.386Z,15.69
2022-10-16T17:04:03.489Z,15.59
2022-10-16T17:09:14.100Z,15.50
2022-10-16T17:14:23.106Z,15.42
2022-10-16T17:19:30.812Z,15.17
2022-10-16T17:24:37.899Z,15.01
2022-10-16T17:29:45.421Z,14.98
2022-10-16T17:34:52.606Z,14.90
2022-10-16T17:40:00.089Z,14.64
2022-10-16T17:45:09.431Z,14.51
2022-10-16T17:50:16.636Z,14.41
2022-10-16T17:55:27.176Z,14.33
2022-10-16T18:00:35.185Z,14.19
2022-10-16T18:05:42.527Z,14.18
2022-10-16T18:10:52.158Z,14.17
2022-10-16T18:16:04.868Z,14.09
2022-10-16T18:21:15.245Z,13.91
2022-10-16T18:26:26.484Z,13.74
2022-10-16T18:31:34.480Z,13.58
2022-10-16T18:36:43.810Z,13.57
2022-10-16T18:41:51.835Z,13.64
2022-10-16T18:46:59.545Z,13.60
2022-10-16T18:52:06.872Z,13.49
2022-10-16T18:57:14.368Z,13.38
2022-10-16T19:02:22.994Z,13.17
2022-10-16T19:07:30.745Z,12.96
2022-10-16T19:12:38.196Z,12.82
2022-10-16T19:17:45.547Z,12.71
2022-10-16T19:22:54.497Z,12.68
2022-10-16T19:28:06.268Z,12.62
2022-10-16T19:33:13.446Z,12.59
2022-10-16T19:38:21.033Z,12.56
2022-10-16T19:43:28.715Z,12.46
2022-10-16T19:48:35.922Z,12.38
2022-10-16T19:53:43.433Z,12.35
2022-10-16T19:58:51.830Z,12.24
2022-10-16T20:04:00.335Z,12.15
2022-10-16T20:09:09.300Z,12.04
2022-10-16T20:14:16.482Z,11.98
2022-10-16T20:19:24.399Z,12.00
2022-10-16T20:24:31.485Z,12.06
2022-10-16T20:29:38.948Z,12.01
2022-10-16T20:34:49.405Z,11.81
2022-10-16T20:39:56.407Z,11.60
2022-10-16T20:45:03.771Z,11.41
2022-10-16T20:50:13.834Z,11.33
2022-10-16T20:55:23.394Z,11.29
2022-10-16T21:00:30.697Z,11.32
2022-10-16T21:05:43.259Z,11.34
2022-10-16T21:10:50.596Z,11.32
2022-10-16T21:15:57.735Z,11.22
2022-10-16T21:21:05.325Z,11.04
2022-10-16T21:26:12.839Z,10.95
2022-10-16T21:31:21.899Z,11.03
2022-10-16T21:36:31.428Z,11.09
2022-10-16T21:41:38.858Z,11.02
2022-10-16T22:00:39.531Z,10.82
2022-10-16T22:05:46.828Z,10.71
2022-10-16T22:10:55.885Z,10.64
2022-10-16T22:16:03.765Z,10.67
2022-10-16T22:21:13.325Z,10.65
2022-10-16T22:26:21.199Z,10.53
2022-10-16T22:31:28.598Z,10.52
2022-10-16T22:36:36.418Z,10.50
2022-10-16T22:41:43.326Z,10.45
2022-10-16T22:46:51.386Z,10.33
2022-10-16T22:51:58.526Z,10.30
2022-10-16T22:57:05.440Z,10.31
2022-10-16T23:02:11.404Z,10.27
2022-10-16T23:07:19.351Z,10.28
2022-10-16T23:12:27.662Z,10.29
2022-10-16T23:17:35.515Z,10.28
2022-10-16T23:22:42.631Z,10.25
2022-10-16T23:27:50.473Z,10.23
2022-10-16T23:32:57.672Z,10.27
2022-10-16T23:40:43.762Z,10.32
2022-10-16T23:45:51.013Z,10.24
2022-10-16T23:50:58.891Z,10.12
2022-10-16T23:56:08.006Z,10.11
